sensor_id;sensor_type;location;lat;lon;timestamp;P1;durP1;ratioP1;P2;durP2;ratioP2
27013;SDS011;14556;52.222;4.510;2022-11-14T00:00:27;11.13;;;7.67;;
27013;SDS011;14556;52.222;4.510;2022-11-14T00:02:58;10.60;;;6.83;;
27013;SDS011;14556;52.222;4.510;2022-11-14T00:05:26;10.63;;;7.50;;
27013;SDS011;14556;52.222;4.510;2022-11-14T00:07:53;13.03;;;8.63;;
27013;SDS011;14556;52.222;4.510;2022-11-14T00:10:19;11.13;;;7.57;;
27013;SDS011;14556;52.222;4.510;2022-11-14T00:12:46;11.07;;;8.30;;
27013;SDS011;14556;52.222;4.510;2022-11-14T00:15:13;13.83;;;7.97;;
27013;SDS011;14556;52.222;4.510;2022-11-14T00:17:39;11.90;;;7.53;;
27013;SDS011;14556;52.222;4.510;2022-11-14T00:20:07;12.27;;;8.33;;
27013;SDS011;14556;52.222;4.510;2022-11-14T00:22:34;12.03;;;7.63;;
27013;SDS011;14556;52.222;4.510;2022-11-14T00:25:01;10.73;;;8.17;;
27013;SDS011;14556;52.222;4.510;2022-11-14T00:27:27;9.03;;;7.20;;
27013;SDS011;14556;52.222;4.510;2022-11-14T00:29:53;12.50;;;8.70;;
27013;SDS011;14556;52.222;4.510;2022-11-14T00:32:20;11.33;;;8.07;;
27013;SDS011;14556;52.222;4.510;2022-11-14T00:34:48;10.73;;;8.20;;
27013;SDS011;14556;52.222;4.510;2022-11-14T00:37:14;10.77;;;7.60;;
27013;SDS011;14556;52.222;4.510;2022-11-14T00:39:41;11.63;;;7.93;;
27013;SDS011;14556;52.222;4.510;2022-11-14T00:42:07;13.07;;;8.90;;
27013;SDS011;14556;52.222;4.510;2022-11-14T00:44:34;12.47;;;8.73;;
27013;SDS011;14556;52.222;4.510;2022-11-14T00:47:00;11.43;;;7.73;;
27013;SDS011;14556;52.222;4.510;2022-11-14T00:49:26;11.27;;;7.77;;
27013;SDS011;14556;52.222;4.510;2022-11-14T00:51:53;10.87;;;8.90;;
27013;SDS011;14556;52.222;4.510;2022-11-14T00:54:19;13.37;;;9.17;;
27013;SDS011;14556;52.222;4.510;2022-11-14T00:56:46;12.30;;;8.73;;
27013;SDS011;14556;52.222;4.510;2022-11-14T00:59:12;12.67;;;8.03;;
27013;SDS011;14556;52.222;4.510;2022-11-14T01:01:38;13.90;;;8.90;;
27013;SDS011;14556;52.222;4.510;2022-11-14T01:04:05;14.47;;;9.20;;
27013;SDS011;14556;52.222;4.510;2022-11-14T01:06:31;12.97;;;8.90;;
27013;SDS011;14556;52.222;4.510;2022-11-14T01:08:58;12.03;;;8.47;;
27013;SDS011;14556;52.222;4.510;2022-11-14T01:11:24;15.70;;;10.20;;
27013;SDS011;14556;52.222;4.510;2022-11-14T01:13:51;14.63;;;9.33;;
27013;SDS011;14556;52.222;4.510;2022-11-14T01:16:17;16.97;;;8.73;;
27013;SDS011;14556;52.222;4.510;2022-11-14T01:18:45;15.30;;;8.90;;
27013;SDS011;14556;52.222;4.510;2022-11-14T01:21:12;11.17;;;8.43;;
27013;SDS011;14556;52.222;4.510;2022-11-14T01:23:39;15.20;;;9.73;;
27013;SDS011;14556;52.222;4.510;2022-11-14T01:26:07;12.90;;;8.13;;
27013;SDS011;14556;52.222;4.510;2022-11-14T01:28:35;14.00;;;10.00;;
27013;SDS011;14556;52.222;4.510;2022-11-14T01:31:09;15.20;;;9.90;;
27013;SDS011;14556;52.222;4.510;2022-11-14T01:33:54;13.37;;;9.70;;
27013;SDS011;14556;52.222;4.510;2022-11-14T01:36:20;13.87;;;9.47;;
27013;SDS011;14556;52.222;4.510;2022-11-14T01:38:50;16.10;;;9.20;;
27013;SDS011;14556;52.222;4.510;2022-11-14T01:41:17;13.40;;;9.50;;
27013;SDS011;14556;52.222;4.510;2022-11-14T01:43:44;14.27;;;9.17;;
27013;SDS011;14556;52.222;4.510;2022-11-14T01:46:16;14.77;;;10.10;;
27013;SDS011;14556;52.222;4.510;2022-11-14T01:51:30;16.77;;;10.80;;
27013;SDS011;14556;52.222;4.510;2022-11-14T01:54:09;15.07;;;10.07;;
27013;SDS011;14556;52.222;4.510;2022-11-14T01:56:45;16.20;;;9.53;;
27013;SDS011;14556;52.222;4.510;2022-11-14T01:59:16;13.87;;;9.60;;
27013;SDS011;14556;52.222;4.510;2022-11-14T02:01:48;15.87;;;9.60;;
27013;SDS011;14556;52.222;4.510;2022-11-14T02:04:18;16.60;;;10.13;;
27013;SDS011;14556;52.222;4.510;2022-11-14T02:06:48;17.17;;;9.87;;
27013;SDS011;14556;52.222;4.510;2022-11-14T02:09:16;16.40;;;10.57;;
27013;SDS011;14556;52.222;4.510;2022-11-14T02:11:43;14.47;;;10.13;;
27013;SDS011;14556;52.222;4.510;2022-11-14T02:14:11;17.00;;;10.23;;
27013;SDS011;14556;52.222;4.510;2022-11-14T02:16:38;17.63;;;11.37;;
27013;SDS011;14556;52.222;4.510;2022-11-14T02:19:07;22.40;;;11.67;;
27013;SDS011;14556;52.222;4.510;2022-11-14T02:21:34;20.40;;;11.20;;
27013;SDS011;14556;52.222;4.510;2022-11-14T02:24:00;20.27;;;11.60;;
27013;SDS011;14556;52.222;4.510;2022-11-14T02:26:27;19.57;;;11.57;;
27013;SDS011;14556;52.222;4.510;2022-11-14T02:29:00;18.70;;;11.20;;
27013;SDS011;14556;52.222;4.510;2022-11-14T02:31:27;17.97;;;10.67;;
27013;SDS011;14556;52.222;4.510;2022-11-14T02:33:53;20.97;;;12.20;;
27013;SDS011;14556;52.222;4.510;2022-11-14T02:36:20;19.90;;;12.17;;
27013;SDS011;14556;52.222;4.510;2022-11-14T02:38:46;25.27;;;13.43;;
27013;SDS011;14556;52.222;4.510;2022-11-14T02:41:13;19.73;;;11.77;;
27013;SDS011;14556;52.222;4.510;2022-11-14T02:43:39;21.80;;;12.80;;
27013;SDS011;14556;52.222;4.510;2022-11-14T02:46:06;21.63;;;11.93;;
27013;SDS011;14556;52.222;4.510;2022-11-14T02:48:32;22.93;;;12.73;;
27013;SDS011;14556;52.222;4.510;2022-11-14T02:50:58;22.30;;;12.50;;
27013;SDS011;14556;52.222;4.510;2022-11-14T02:53:25;24.27;;;13.77;;
27013;SDS011;14556;52.222;4.510;2022-11-14T02:55:51;20.77;;;11.67;;
27013;SDS011;14556;52.222;4.510;2022-11-14T02:58:18;20.83;;;12.73;;
27013;SDS011;14556;52.222;4.510;2022-11-14T03:00:44;21.67;;;12.13;;
27013;SDS011;14556;52.222;4.510;2022-11-14T03:03:31;22.53;;;12.27;;
27013;SDS011;14556;52.222;4.510;2022-11-14T03:05:58;19.27;;;11.57;;
27013;SDS011;14556;52.222;4.510;2022-11-14T03:08:25;22.07;;;12.47;;
27013;SDS011;14556;52.222;4.510;2022-11-14T03:10:52;24.00;;;13.53;;
27013;SDS011;14556;52.222;4.510;2022-11-14T03:13:19;20.37;;;12.23;;
27013;SDS011;14556;52.222;4.510;2022-11-14T03:15:45;24.33;;;14.47;;
27013;SDS011;14556;52.222;4.510;2022-11-14T03:18:12;21.50;;;12.67;;
27013;SDS011;14556;52.222;4.510;2022-11-14T03:20:38;21.07;;;13.17;;
27013;SDS011;14556;52.222;4.510;2022-11-14T03:23:05;23.27;;;13.47;;
27013;SDS011;14556;52.222;4.510;2022-11-14T03:25:31;25.53;;;13.77;;
27013;SDS011;14556;52.222;4.510;2022-11-14T03:27:58;28.80;;;15.30;;
27013;SDS011;14556;52.222;4.510;2022-11-14T03:30:24;24.03;;;13.63;;
27013;SDS011;14556;52.222;4.510;2022-11-14T03:32:51;25.80;;;14.40;;
27013;SDS011;14556;52.222;4.510;2022-11-14T03:35:17;28.97;;;14.80;;
27013;SDS011;14556;52.222;4.510;2022-11-14T03:37:43;32.33;;;16.27;;
27013;SDS011;14556;52.222;4.510;2022-11-14T03:40:10;30.73;;;15.67;;
27013;SDS011;14556;52.222;4.510;2022-11-14T03:42:36;26.30;;;15.17;;
27013;SDS011;14556;52.222;4.510;2022-11-14T03:45:03;27.00;;;16.23;;
27013;SDS011;14556;52.222;4.510;2022-11-14T03:47:30;30.10;;;15.27;;
27013;SDS011;14556;52.222;4.510;2022-11-14T03:49:56;27.73;;;15.00;;
27013;SDS011;14556;52.222;4.510;2022-11-14T03:52:23;30.13;;;16.87;;
27013;SDS011;14556;52.222;4.510;2022-11-14T03:54:51;30.60;;;16.77;;
27013;SDS011;14556;52.222;4.510;2022-11-14T03:57:17;31.07;;;16.90;;
27013;SDS011;14556;52.222;4.510;2022-11-14T03:59:44;28.07;;;15.77;;
27013;SDS011;14556;52.222;4.510;2022-11-14T04:02:10;36.30;;;17.33;;
27013;SDS011;14556;52.222;4.510;2022-11-14T04:04:37;33.63;;;16.20;;
27013;SDS011;14556;52.222;4.510;2022-11-14T04:07:03;32.00;;;17.27;;
27013;SDS011;14556;52.222;4.510;2022-11-14T04:09:31;29.37;;;17.13;;
27013;SDS011;14556;52.222;4.510;2022-11-14T04:11:57;32.97;;;17.47;;
27013;SDS011;14556;52.222;4.510;2022-11-14T04:14:24;31.23;;;15.80;;
27013;SDS011;14556;52.222;4.510;2022-11-14T04:16:51;30.70;;;17.87;;
27013;SDS011;14556;52.222;4.510;2022-11-14T04:19:17;35.50;;;17.60;;
27013;SDS011;14556;52.222;4.510;2022-11-14T04:21:44;38.10;;;18.23;;
27013;SDS011;14556;52.222;4.510;2022-11-14T04:24:10;32.70;;;17.37;;
27013;SDS011;14556;52.222;4.510;2022-11-14T04:26:36;34.20;;;18.27;;
27013;SDS011;14556;52.222;4.510;2022-11-14T04:29:03;33.27;;;17.10;;
27013;SDS011;14556;52.222;4.510;2022-11-14T04:31:29;32.27;;;17.57;;
27013;SDS011;14556;52.222;4.510;2022-11-14T04:33:56;32.80;;;17.20;;
27013;SDS011;14556;52.222;4.510;2022-11-14T04:36:22;33.17;;;17.87;;
27013;SDS011;14556;52.222;4.510;2022-11-14T04:38:48;31.13;;;17.30;;
27013;SDS011;14556;52.222;4.510;2022-11-14T04:41:15;35.03;;;17.43;;
27013;SDS011;14556;52.222;4.510;2022-11-14T04:43:41;30.93;;;16.90;;
27013;SDS011;14556;52.222;4.510;2022-11-14T04:46:14;30.67;;;17.30;;
27013;SDS011;14556;52.222;4.510;2022-11-14T04:48:41;34.47;;;18.53;;
27013;SDS011;14556;52.222;4.510;2022-11-14T04:51:07;35.03;;;18.17;;
27013;SDS011;14556;52.222;4.510;2022-11-14T04:53:34;35.70;;;18.27;;
27013;SDS011;14556;52.222;4.510;2022-11-14T04:56:00;30.93;;;17.43;;
27013;SDS011;14556;52.222;4.510;2022-11-14T04:58:27;34.30;;;17.87;;
27013;SDS011;14556;52.222;4.510;2022-11-14T05:00:54;32.63;;;17.67;;
27013;SDS011;14556;52.222;4.510;2022-11-14T05:03:23;33.60;;;17.77;;
27013;SDS011;14556;52.222;4.510;2022-11-14T05:05:50;35.63;;;19.10;;
27013;SDS011;14556;52.222;4.510;2022-11-14T05:08:16;37.30;;;18.50;;
27013;SDS011;14556;52.222;4.510;2022-11-14T05:10:43;32.20;;;17.10;;
27013;SDS011;14556;52.222;4.510;2022-11-14T05:13:11;34.97;;;19.17;;
27013;SDS011;14556;52.222;4.510;2022-11-14T05:15:38;31.67;;;17.00;;
27013;SDS011;14556;52.222;4.510;2022-11-14T05:18:04;34.37;;;17.10;;
27013;SDS011;14556;52.222;4.510;2022-11-14T05:20:31;36.87;;;16.70;;
27013;SDS011;14556;52.222;4.510;2022-11-14T05:22:57;34.33;;;19.07;;
27013;SDS011;14556;52.222;4.510;2022-11-14T05:25:23;39.73;;;18.20;;
27013;SDS011;14556;52.222;4.510;2022-11-14T05:27:50;36.17;;;18.47;;
27013;SDS011;14556;52.222;4.510;2022-11-14T05:30:16;33.80;;;17.77;;
27013;SDS011;14556;52.222;4.510;2022-11-14T05:32:43;38.57;;;18.27;;
27013;SDS011;14556;52.222;4.510;2022-11-14T05:35:09;34.33;;;17.63;;
27013;SDS011;14556;52.222;4.510;2022-11-14T05:37:36;38.53;;;19.73;;
27013;SDS011;14556;52.222;4.510;2022-11-14T05:40:03;32.20;;;16.93;;
27013;SDS011;14556;52.222;4.510;2022-11-14T05:42:30;33.13;;;17.17;;
27013;SDS011;14556;52.222;4.510;2022-11-14T05:44:57;34.43;;;16.93;;
27013;SDS011;14556;52.222;4.510;2022-11-14T05:47:24;34.40;;;18.60;;
27013;SDS011;14556;52.222;4.510;2022-11-14T05:49:50;37.77;;;18.77;;
27013;SDS011;14556;52.222;4.510;2022-11-14T05:52:16;34.40;;;17.10;;
27013;SDS011;14556;52.222;4.510;2022-11-14T05:54:43;33.43;;;16.77;;
27013;SDS011;14556;52.222;4.510;2022-11-14T05:57:09;34.40;;;18.77;;
27013;SDS011;14556;52.222;4.510;2022-11-14T05:59:35;33.03;;;18.03;;
27013;SDS011;14556;52.222;4.510;2022-11-14T06:02:02;34.27;;;16.13;;
27013;SDS011;14556;52.222;4.510;2022-11-14T06:04:28;30.87;;;17.13;;
27013;SDS011;14556;52.222;4.510;2022-11-14T06:06:55;35.03;;;17.30;;
27013;SDS011;14556;52.222;4.510;2022-11-14T06:09:21;33.83;;;16.67;;
27013;SDS011;14556;52.222;4.510;2022-11-14T06:11:48;36.73;;;17.53;;
27013;SDS011;14556;52.222;4.510;2022-11-14T06:14:14;34.00;;;16.90;;
27013;SDS011;14556;52.222;4.510;2022-11-14T06:16:40;33.97;;;17.67;;
27013;SDS011;14556;52.222;4.510;2022-11-14T06:19:07;31.93;;;16.77;;
27013;SDS011;14556;52.222;4.510;2022-11-14T06:21:33;34.53;;;16.90;;
27013;SDS011;14556;52.222;4.510;2022-11-14T06:24:00;34.33;;;16.47;;
27013;SDS011;14556;52.222;4.510;2022-11-14T06:26:27;35.40;;;16.93;;
27013;SDS011;14556;52.222;4.510;2022-11-14T06:28:58;34.07;;;18.03;;
27013;SDS011;14556;52.222;4.510;2022-11-14T06:31:25;30.30;;;16.57;;
27013;SDS011;14556;52.222;4.510;2022-11-14T06:33:52;35.60;;;17.27;;
27013;SDS011;14556;52.222;4.510;2022-11-14T06:36:19;34.13;;;16.90;;
27013;SDS011;14556;52.222;4.510;2022-11-14T06:38:45;34.00;;;17.33;;
27013;SDS011;14556;52.222;4.510;2022-11-14T06:41:16;34.90;;;17.23;;
27013;SDS011;14556;52.222;4.510;2022-11-14T06:43:45;34.43;;;16.73;;
27013;SDS011;14556;52.222;4.510;2022-11-14T06:46:14;29.10;;;15.67;;
27013;SDS011;14556;52.222;4.510;2022-11-14T06:48:44;34.33;;;16.33;;
27013;SDS011;14556;52.222;4.510;2022-11-14T06:51:12;36.67;;;17.43;;
27013;SDS011;14556;52.222;4.510;2022-11-14T06:53:40;33.60;;;16.57;;
27013;SDS011;14556;52.222;4.510;2022-11-14T06:56:08;35.27;;;16.30;;
27013;SDS011;14556;52.222;4.510;2022-11-14T06:58:37;31.30;;;16.90;;
27013;SDS011;14556;52.222;4.510;2022-11-14T07:01:21;35.47;;;16.50;;
27013;SDS011;14556;52.222;4.510;2022-11-14T07:03:51;30.60;;;17.00;;
27013;SDS011;14556;52.222;4.510;2022-11-14T07:06:21;32.20;;;16.03;;
27013;SDS011;14556;52.222;4.510;2022-11-14T07:08:50;36.47;;;17.13;;
27013;SDS011;14556;52.222;4.510;2022-11-14T07:11:18;36.30;;;16.90;;
27013;SDS011;14556;52.222;4.510;2022-11-14T07:13:52;33.23;;;16.90;;
27013;SDS011;14556;52.222;4.510;2022-11-14T07:16:22;33.07;;;16.43;;
27013;SDS011;14556;52.222;4.510;2022-11-14T07:18:50;34.00;;;16.57;;
27013;SDS011;14556;52.222;4.510;2022-11-14T07:21:17;36.50;;;16.57;;
27013;SDS011;14556;52.222;4.510;2022-11-14T07:23:43;34.33;;;17.47;;
27013;SDS011;14556;52.222;4.510;2022-11-14T07:26:10;30.43;;;15.47;;
27013;SDS011;14556;52.222;4.510;2022-11-14T07:28:38;32.10;;;16.63;;
27013;SDS011;14556;52.222;4.510;2022-11-14T07:31:07;34.60;;;16.57;;
27013;SDS011;14556;52.222;4.510;2022-11-14T07:33:37;34.93;;;16.20;;
27013;SDS011;14556;52.222;4.510;2022-11-14T07:36:04;31.60;;;16.87;;
27013;SDS011;14556;52.222;4.510;2022-11-14T07:38:31;32.57;;;15.43;;
27013;SDS011;14556;52.222;4.510;2022-11-14T07:40:59;33.00;;;15.57;;
27013;SDS011;14556;52.222;4.510;2022-11-14T07:43:28;33.73;;;16.37;;
27013;SDS011;14556;52.222;4.510;2022-11-14T07:46:05;35.90;;;16.77;;
27013;SDS011;14556;52.222;4.510;2022-11-14T07:48:33;35.60;;;17.40;;
27013;SDS011;14556;52.222;4.510;2022-11-14T07:51:00;33.73;;;16.97;;
27013;SDS011;14556;52.222;4.510;2022-11-14T07:53:28;31.70;;;16.90;;
27013;SDS011;14556;52.222;4.510;2022-11-14T07:55:55;29.40;;;14.80;;
27013;SDS011;14556;52.222;4.510;2022-11-14T07:58:22;34.00;;;17.70;;
27013;SDS011;14556;52.222;4.510;2022-11-14T08:00:50;33.07;;;15.63;;
27013;SDS011;14556;52.222;4.510;2022-11-14T08:03:16;34.30;;;17.73;;
27013;SDS011;14556;52.222;4.510;2022-11-14T08:05:42;40.80;;;18.10;;
27013;SDS011;14556;52.222;4.510;2022-11-14T08:08:09;33.47;;;16.73;;
27013;SDS011;14556;52.222;4.510;2022-11-14T08:10:35;35.03;;;16.87;;
27013;SDS011;14556;52.222;4.510;2022-11-14T08:13:03;32.20;;;16.53;;
27013;SDS011;14556;52.222;4.510;2022-11-14T08:15:51;39.97;;;17.27;;
27013;SDS011;14556;52.222;4.510;2022-11-14T08:18:18;34.80;;;16.53;;
27013;SDS011;14556;52.222;4.510;2022-11-14T08:20:44;35.87;;;16.40;;
27013;SDS011;14556;52.222;4.510;2022-11-14T08:23:13;31.87;;;16.03;;
27013;SDS011;14556;52.222;4.510;2022-11-14T08:25:40;33.40;;;16.50;;
27013;SDS011;14556;52.222;4.510;2022-11-14T08:28:07;35.80;;;16.93;;
27013;SDS011;14556;52.222;4.510;2022-11-14T08:30:34;28.87;;;15.53;;
27013;SDS011;14556;52.222;4.510;2022-11-14T08:33:01;32.17;;;15.93;;
27013;SDS011;14556;52.222;4.510;2022-11-14T08:35:28;31.47;;;16.33;;
27013;SDS011;14556;52.222;4.510;2022-11-14T08:37:55;34.90;;;14.97;;
27013;SDS011;14556;52.222;4.510;2022-11-14T08:40:22;30.50;;;14.77;;
27013;SDS011;14556;52.222;4.510;2022-11-14T08:42:50;28.00;;;15.23;;
27013;SDS011;14556;52.222;4.510;2022-11-14T08:45:17;32.27;;;16.33;;
27013;SDS011;14556;52.222;4.510;2022-11-14T08:47:49;30.00;;;14.80;;
27013;SDS011;14556;52.222;4.510;2022-11-14T08:50:16;29.47;;;14.93;;
27013;SDS011;14556;52.222;4.510;2022-11-14T08:52:42;30.90;;;14.67;;
27013;SDS011;14556;52.222;4.510;2022-11-14T08:55:14;31.23;;;14.20;;
27013;SDS011;14556;52.222;4.510;2022-11-14T08:57:41;26.03;;;15.00;;
27013;SDS011;14556;52.222;4.510;2022-11-14T09:00:14;25.53;;;13.37;;
27013;SDS011;14556;52.222;4.510;2022-11-14T09:02:41;26.70;;;13.90;;
27013;SDS011;14556;52.222;4.510;2022-11-14T09:05:07;24.73;;;12.63;;
27013;SDS011;14556;52.222;4.510;2022-11-14T09:07:34;25.53;;;13.00;;
27013;SDS011;14556;52.222;4.510;2022-11-14T09:10:01;24.47;;;12.50;;
27013;SDS011;14556;52.222;4.510;2022-11-14T09:12:29;27.57;;;14.03;;
27013;SDS011;14556;52.222;4.510;2022-11-14T09:14:55;28.13;;;13.63;;
27013;SDS011;14556;52.222;4.510;2022-11-14T09:17:22;28.17;;;13.37;;
27013;SDS011;14556;52.222;4.510;2022-11-14T09:19:48;23.03;;;12.60;;
27013;SDS011;14556;52.222;4.510;2022-11-14T09:22:15;23.53;;;12.10;;
27013;SDS011;14556;52.222;4.510;2022-11-14T09:24:41;27.80;;;13.67;;
27013;SDS011;14556;52.222;4.510;2022-11-14T09:27:08;29.23;;;13.43;;
27013;SDS011;14556;52.222;4.510;2022-11-14T09:29:34;23.87;;;13.27;;
27013;SDS011;14556;52.222;4.510;2022-11-14T09:32:01;25.70;;;13.53;;
27013;SDS011;14556;52.222;4.510;2022-11-14T09:34:27;25.83;;;14.20;;
27013;SDS011;14556;52.222;4.510;2022-11-14T09:36:53;23.53;;;12.33;;
27013;SDS011;14556;52.222;4.510;2022-11-14T09:39:20;23.13;;;13.17;;
27013;SDS011;14556;52.222;4.510;2022-11-14T09:41:56;23.63;;;12.60;;
27013;SDS011;14556;52.222;4.510;2022-11-14T09:44:51;21.93;;;12.67;;
27013;SDS011;14556;52.222;4.510;2022-11-14T09:47:31;29.03;;;15.57;;
27013;SDS011;14556;52.222;4.510;2022-11-14T09:50:11;24.50;;;11.70;;
27013;SDS011;14556;52.222;4.510;2022-11-14T09:53:00;26.90;;;13.33;;
27013;SDS011;14556;52.222;4.510;2022-11-14T09:55:32;22.10;;;11.33;;
27013;SDS011;14556;52.222;4.510;2022-11-14T09:58:02;26.00;;;13.63;;
27013;SDS011;14556;52.222;4.510;2022-11-14T10:00:38;21.07;;;12.30;;
27013;SDS011;14556;52.222;4.510;2022-11-14T10:03:16;23.40;;;11.70;;
27013;SDS011;14556;52.222;4.510;2022-11-14T10:06:15;23.90;;;12.60;;
27013;SDS011;14556;52.222;4.510;2022-11-14T10:17:22;22.23;;;12.40;;
27013;SDS011;14556;52.222;4.510;2022-11-14T10:22:58;20.27;;;11.67;;
27013;SDS011;14556;52.222;4.510;2022-11-14T10:25:55;20.43;;;11.53;;
27013;SDS011;14556;52.222;4.510;2022-11-14T10:28:39;21.07;;;11.97;;
27013;SDS011;14556;52.222;4.510;2022-11-14T10:34:29;19.80;;;11.57;;
27013;SDS011;14556;52.222;4.510;2022-11-14T10:37:07;20.53;;;10.73;;
27013;SDS011;14556;52.222;4.510;2022-11-14T10:39:50;16.40;;;10.10;;
27013;SDS011;14556;52.222;4.510;2022-11-14T10:42:28;21.00;;;11.27;;
27013;SDS011;14556;52.222;4.510;2022-11-14T10:45:03;21.23;;;11.00;;
27013;SDS011;14556;52.222;4.510;2022-11-14T10:47:38;17.07;;;10.37;;
27013;SDS011;14556;52.222;4.510;2022-11-14T10:50:20;20.47;;;11.33;;
27013;SDS011;14556;52.222;4.510;2022-11-14T10:52:51;19.50;;;11.10;;
27013;SDS011;14556;52.222;4.510;2022-11-14T10:55:22;18.97;;;10.13;;
27013;SDS011;14556;52.222;4.510;2022-11-14T10:58:10;16.53;;;10.13;;
27013;SDS011;14556;52.222;4.510;2022-11-14T11:00:38;16.47;;;10.50;;
27013;SDS011;14556;52.222;4.510;2022-11-14T11:03:05;15.97;;;10.33;;
27013;SDS011;14556;52.222;4.510;2022-11-14T11:05:32;15.30;;;9.90;;
27013;SDS011;14556;52.222;4.510;2022-11-14T11:08:11;17.93;;;9.87;;
27013;SDS011;14556;52.222;4.510;2022-11-14T11:11:12;17.30;;;9.33;;
27013;SDS011;14556;52.222;4.510;2022-11-14T11:13:58;18.50;;;9.77;;
27013;SDS011;14556;52.222;4.510;2022-11-14T11:16:26;14.87;;;9.87;;
27013;SDS011;14556;52.222;4.510;2022-11-14T11:19:03;20.80;;;10.13;;
27013;SDS011;14556;52.222;4.510;2022-11-14T11:21:46;14.87;;;8.93;;
27013;SDS011;14556;52.222;4.510;2022-11-14T11:24:34;16.73;;;9.53;;
27013;SDS011;14556;52.222;4.510;2022-11-14T11:29:43;17.43;;;9.47;;
27013;SDS011;14556;52.222;4.510;2022-11-14T11:32:11;13.37;;;9.23;;
27013;SDS011;14556;52.222;4.510;2022-11-14T11:34:50;13.93;;;8.40;;
27013;SDS011;14556;52.222;4.510;2022-11-14T11:40:21;14.60;;;9.73;;
27013;SDS011;14556;52.222;4.510;2022-11-14T11:42:57;14.43;;;8.57;;
27013;SDS011;14556;52.222;4.510;2022-11-14T11:45:49;14.90;;;9.53;;
27013;SDS011;14556;52.222;4.510;2022-11-14T11:48:19;14.70;;;9.00;;
27013;SDS011;14556;52.222;4.510;2022-11-14T11:50:47;14.43;;;8.33;;
27013;SDS011;14556;52.222;4.510;2022-11-14T11:53:16;14.40;;;8.83;;
27013;SDS011;14556;52.222;4.510;2022-11-14T11:55:50;13.50;;;8.50;;
27013;SDS011;14556;52.222;4.510;2022-11-14T12:00:57;13.43;;;8.50;;
27013;SDS011;14556;52.222;4.510;2022-11-14T12:03:24;13.93;;;8.30;;
27013;SDS011;14556;52.222;4.510;2022-11-14T12:08:46;14.67;;;9.60;;
27013;SDS011;14556;52.222;4.510;2022-11-14T12:11:19;14.63;;;9.33;;
27013;SDS011;14556;52.222;4.510;2022-11-14T12:13:52;12.93;;;8.57;;
27013;SDS011;14556;52.222;4.510;2022-11-14T12:30:52;14.13;;;9.10;;
27013;SDS011;14556;52.222;4.510;2022-11-14T12:33:28;14.90;;;8.93;;
27013;SDS011;14556;52.222;4.510;2022-11-14T12:36:00;11.40;;;8.43;;
27013;SDS011;14556;52.222;4.510;2022-11-14T12:38:32;12.90;;;8.57;;
27013;SDS011;14556;52.222;4.510;2022-11-14T12:41:07;14.87;;;8.90;;
27013;SDS011;14556;52.222;4.510;2022-11-14T12:43:35;15.37;;;9.10;;
27013;SDS011;14556;52.222;4.510;2022-11-14T12:46:03;12.30;;;8.97;;
27013;SDS011;14556;52.222;4.510;2022-11-14T12:48:43;12.13;;;8.57;;
27013;SDS011;14556;52.222;4.510;2022-11-14T12:53:53;15.63;;;9.23;;
27013;SDS011;14556;52.222;4.510;2022-11-14T13:07:07;16.27;;;10.23;;
27013;SDS011;14556;52.222;4.510;2022-11-14T13:09:40;13.63;;;9.23;;
27013;SDS011;14556;52.222;4.510;2022-11-14T13:15:29;14.90;;;9.17;;
27013;SDS011;14556;52.222;4.510;2022-11-14T13:18:22;12.90;;;8.73;;
27013;SDS011;14556;52.222;4.510;2022-11-14T13:21:19;13.20;;;9.00;;
27013;SDS011;14556;52.222;4.510;2022-11-14T13:24:14;13.97;;;9.00;;
27013;SDS011;14556;52.222;4.510;2022-11-14T13:26:49;14.90;;;9.83;;
27013;SDS011;14556;52.222;4.510;2022-11-14T13:32:09;15.10;;;9.77;;
27013;SDS011;14556;52.222;4.510;2022-11-14T13:34:41;17.90;;;10.20;;
27013;SDS011;14556;52.222;4.510;2022-11-14T13:40:03;15.30;;;10.03;;
27013;SDS011;14556;52.222;4.510;2022-11-14T13:50:36;15.03;;;10.00;;
27013;SDS011;14556;52.222;4.510;2022-11-14T13:53:16;14.23;;;9.27;;
27013;SDS011;14556;52.222;4.510;2022-11-14T13:55:49;13.17;;;9.53;;
27013;SDS011;14556;52.222;4.510;2022-11-14T13:58:24;16.03;;;9.60;;
27013;SDS011;14556;52.222;4.510;2022-11-14T14:10:05;15.60;;;9.27;;
27013;SDS011;14556;52.222;4.510;2022-11-14T14:20:54;13.60;;;10.33;;
27013;SDS011;14556;52.222;4.510;2022-11-14T14:29:03;15.67;;;10.63;;
27013;SDS011;14556;52.222;4.510;2022-11-14T14:31:38;16.70;;;10.93;;
27013;SDS011;14556;52.222;4.510;2022-11-14T14:34:22;13.83;;;10.20;;
27013;SDS011;14556;52.222;4.510;2022-11-14T14:36:56;15.00;;;10.60;;
27013;SDS011;14556;52.222;4.510;2022-11-14T14:39:24;17.17;;;11.47;;
27013;SDS011;14556;52.222;4.510;2022-11-14T14:41:56;16.17;;;9.93;;
27013;SDS011;14556;52.222;4.510;2022-11-14T14:44:30;21.43;;;11.73;;
27013;SDS011;14556;52.222;4.510;2022-11-14T14:47:26;16.47;;;10.80;;
27013;SDS011;14556;52.222;4.510;2022-11-14T14:50:00;19.60;;;11.33;;
27013;SDS011;14556;52.222;4.510;2022-11-14T14:52:33;16.43;;;10.50;;
27013;SDS011;14556;52.222;4.510;2022-11-14T14:55:03;17.57;;;11.43;;
27013;SDS011;14556;52.222;4.510;2022-11-14T14:57:33;17.23;;;12.23;;
27013;SDS011;14556;52.222;4.510;2022-11-14T15:00:22;19.57;;;11.80;;
27013;SDS011;14556;52.222;4.510;2022-11-14T15:02:48;16.17;;;10.43;;
27013;SDS011;14556;52.222;4.510;2022-11-14T15:05:25;16.80;;;11.63;;
27013;SDS011;14556;52.222;4.510;2022-11-14T15:07:57;19.73;;;11.80;;
27013;SDS011;14556;52.222;4.510;2022-11-14T15:10:26;16.23;;;10.77;;
27013;SDS011;14556;52.222;4.510;2022-11-14T15:12:55;18.27;;;12.43;;
27013;SDS011;14556;52.222;4.510;2022-11-14T15:15:23;20.93;;;13.13;;
27013;SDS011;14556;52.222;4.510;2022-11-14T15:17:52;21.47;;;12.70;;
27013;SDS011;14556;52.222;4.510;2022-11-14T15:20:27;23.33;;;13.23;;
27013;SDS011;14556;52.222;4.510;2022-11-14T15:23:05;19.23;;;14.00;;
27013;SDS011;14556;52.222;4.510;2022-11-14T15:25:40;22.20;;;16.03;;
27013;SDS011;14556;52.222;4.510;2022-11-14T15:28:20;23.90;;;16.33;;
27013;SDS011;14556;52.222;4.510;2022-11-14T15:30:57;96.40;;;61.57;;
27013;SDS011;14556;52.222;4.510;2022-11-14T15:33:29;36.80;;;22.90;;
27013;SDS011;14556;52.222;4.510;2022-11-14T15:36:10;37.93;;;21.67;;
27013;SDS011;14556;52.222;4.510;2022-11-14T15:38:38;36.43;;;22.40;;
27013;SDS011;14556;52.222;4.510;2022-11-14T15:41:22;39.57;;;22.97;;
27013;SDS011;14556;52.222;4.510;2022-11-14T15:43:51;39.90;;;23.73;;
27013;SDS011;14556;52.222;4.510;2022-11-14T15:48:59;41.90;;;24.80;;
27013;SDS011;14556;52.222;4.510;2022-11-14T15:51:36;43.43;;;26.13;;
27013;SDS011;14556;52.222;4.510;2022-11-14T15:54:04;45.47;;;26.17;;
27013;SDS011;14556;52.222;4.510;2022-11-14T15:56:32;47.23;;;26.47;;
27013;SDS011;14556;52.222;4.510;2022-11-14T15:58:58;46.37;;;26.53;;
27013;SDS011;14556;52.222;4.510;2022-11-14T16:01:24;45.70;;;26.23;;
27013;SDS011;14556;52.222;4.510;2022-11-14T16:03:51;44.57;;;26.83;;
27013;SDS011;14556;52.222;4.510;2022-11-14T16:06:18;46.30;;;28.17;;
27013;SDS011;14556;52.222;4.510;2022-11-14T16:08:44;45.20;;;26.90;;
27013;SDS011;14556;52.222;4.510;2022-11-14T16:11:11;48.87;;;28.27;;
27013;SDS011;14556;52.222;4.510;2022-11-14T16:13:38;49.97;;;28.23;;
27013;SDS011;14556;52.222;4.510;2022-11-14T16:16:04;47.93;;;26.73;;
27013;SDS011;14556;52.222;4.510;2022-11-14T16:18:31;45.37;;;25.73;;
27013;SDS011;14556;52.222;4.510;2022-11-14T16:20:58;45.37;;;25.87;;